Pagrindinis puslapis
METAR-TAF:

METAR-TAF

Oro uostai :

King Cove, Aliaska, Jungtinės Amerikos Valstijos

platuma: 55-06-59N, ilguma: 162-15-58W, Aukštis: 47 m

Dabartinis oras

Ataskaita buvo paskelbta 20 minutes, ne 20:56 UTC
Vėjas 9 kt iš Vakarų
Temperatūra 11°C
Drėgmė 71%
Slėgis 1010 hPa
Matomumas: 16.1 km
Apsiniaukę ne aukštis 2800 ft

METAR: PAVC 212056Z AUTO 27009KT 10SM OVC028 11/06 A2983 RMK AO2 SLP109 T01110056 58011

Laikas: 13:16 (21:16 UTC)


TAF: trūkstamas

Orai ataskaitas ir orų prognozės (METAR, TAF).

turimą stotys yra geltonos ir raudonos taškus žemėlapyje.

Perkelti pele per norėdami pamatyti stoties vardą.

Tada spustelėkite, norėdami matyti oro stebėjimo ir prognozės.

Norėdami pakeisti žemėlapį: spustelėkite ant žalios mygtukų su juodo kryžiaus žemyn,; žalią mygtuką su brūkšneliu, jei norite nutolinti; arba žalių rodyklių gretimoms žemėlapius.


METAR-TAF: